createdAt,value
2019-04-19T00:00:55.977Z,46.70
2019-04-19T00:03:30.374Z,46.50
2019-04-19T00:06:13.782Z,47.30
2019-04-19T00:08:58.927Z,47.90
2019-04-19T00:11:18.617Z,48.20
2019-04-19T00:13:39.058Z,48.10
2019-04-19T00:16:08.902Z,47.90
2019-04-19T00:18:46.148Z,47.70
2019-04-19T00:21:30.515Z,47.60
2019-04-19T00:23:45.730Z,47.60
2019-04-19T00:26:14.822Z,47.60
2019-04-19T00:28:51.408Z,48.20
2019-04-19T00:31:29.515Z,47.70
2019-04-19T00:33:50.989Z,48.00
2019-04-19T00:36:19.760Z,48.20
2019-04-19T00:39:05.068Z,47.90
2019-04-19T00:41:35.737Z,47.50
2019-04-19T00:44:15.270Z,50.50
2019-04-19T00:46:53.386Z,50.60
2019-04-19T00:49:16.038Z,49.30
2019-04-19T00:51:49.121Z,50.00
2019-04-19T00:54:18.085Z,49.60
2019-04-19T00:56:46.695Z,49.70
2019-04-19T00:59:14.289Z,49.80
2019-04-19T01:01:42.063Z,49.60
2019-04-19T01:04:18.330Z,49.70
2019-04-19T01:06:50.899Z,50.10
2019-04-19T01:09:29.033Z,49.50
2019-04-19T01:12:04.492Z,49.90
2019-04-19T01:14:31.257Z,50.10
2019-04-19T01:17:05.354Z,50.20
2019-04-19T01:19:21.505Z,50.80
2019-04-19T01:21:53.350Z,51.50
2019-04-19T01:24:27.474Z,51.00
2019-04-19T01:26:57.206Z,50.80
2019-04-19T01:29:26.266Z,50.80
2019-04-19T01:32:03.190Z,51.00
2019-04-19T01:34:30.591Z,51.30
2019-04-19T01:37:05.713Z,51.00
2019-04-19T01:39:46.955Z,50.60
2019-04-19T01:42:23.036Z,50.50
2019-04-19T01:44:55.852Z,50.60
2019-04-19T01:47:36.640Z,50.60
2019-04-19T01:50:03.225Z,50.90
2019-04-19T01:53:00.577Z,51.50
2019-04-19T01:55:04.822Z,50.90
2019-04-19T01:57:26.340Z,51.10
2019-04-19T01:59:59.140Z,51.00
2019-04-19T02:02:28.290Z,51.40
2019-04-19T02:05:06.219Z,52.70
2019-04-19T02:07:32.778Z,52.90
2019-04-19T02:10:13.122Z,52.40
2019-04-19T02:12:42.018Z,53.00
2019-04-19T02:15:11.132Z,53.20
2019-04-19T02:17:43.141Z,53.00
2019-04-19T02:20:11.795Z,52.80
2019-04-19T02:22:42.349Z,52.80
2019-04-19T02:25:32.166Z,52.60
2019-04-19T02:28:02.633Z,52.70
2019-04-19T02:30:49.706Z,52.40
2019-04-19T02:33:29.749Z,52.90
2019-04-19T02:36:04.480Z,53.50
2019-04-19T02:38:37.339Z,54.30
2019-04-19T02:41:10.937Z,54.00
2019-04-19T02:43:49.370Z,54.10
2019-04-19T02:46:24.380Z,54.50
2019-04-19T02:48:48.094Z,54.50
2019-04-19T02:51:24.113Z,54.10
2019-04-19T02:53:39.300Z,55.30
2019-04-19T02:56:38.041Z,56.00
2019-04-19T02:59:21.178Z,55.70
2019-04-19T03:04:37.623Z,55.40
2019-04-19T03:06:41.583Z,55.40
2019-04-19T03:09:07.244Z,56.10
2019-04-19T03:11:53.564Z,56.00
2019-04-19T03:14:20.618Z,56.10
2019-04-19T03:16:58.145Z,56.70
2019-04-19T03:19:22.448Z,56.40
2019-04-19T03:21:55.992Z,57.40
2019-04-19T03:24:30.191Z,57.70
2019-04-19T03:26:58.109Z,57.50
2019-04-19T03:29:26.866Z,57.40
2019-04-19T03:32:21.963Z,58.00
2019-04-19T03:34:52.479Z,58.00
2019-04-19T03:37:07.653Z,58.00
2019-04-19T03:39:46.001Z,57.80
2019-04-19T03:42:21.686Z,57.90
2019-04-19T03:44:51.071Z,58.80
2019-04-19T03:47:21.394Z,58.70
2019-04-19T03:49:55.416Z,59.00
2019-04-19T03:52:29.109Z,59.10
2019-04-19T03:55:00.036Z,59.30
2019-04-19T03:57:25.258Z,59.20
2019-04-19T03:59:41.438Z,59.40
2019-04-19T04:02:15.275Z,60.30
2019-04-19T04:04:48.347Z,59.70
2019-04-19T04:07:20.158Z,60.60
2019-04-19T04:09:51.618Z,60.40
2019-04-19T04:12:34.578Z,60.00
2019-04-19T04:15:23.846Z,60.40
2019-04-19T04:17:42.069Z,60.50
2019-04-19T04:20:11.708Z,60.90
2019-04-19T04:22:44.063Z,60.70
2019-04-19T04:25:20.336Z,61.40
2019-04-19T04:27:57.816Z,62.10
2019-04-19T04:30:22.846Z,62.20
2019-04-19T04:32:57.211Z,62.50
2019-04-19T04:35:30.305Z,63.10
2019-04-19T04:38:02.678Z,64.30
2019-04-19T04:40:21.082Z,63.60
2019-04-19T04:43:04.316Z,63.00
2019-04-19T04:45:49.528Z,62.70
2019-04-19T04:48:29.381Z,63.20
2019-04-19T04:51:07.452Z,63.60
2019-04-19T04:53:19.884Z,62.70
2019-04-19T04:55:57.954Z,62.90
2019-04-19T04:58:30.406Z,62.70
2019-04-19T05:01:01.703Z,63.10
2019-04-19T05:03:45.578Z,63.30
2019-04-19T05:06:19.125Z,63.20
2019-04-19T05:09:06.581Z,63.50
2019-04-19T05:11:36.479Z,63.70
2019-04-19T05:14:09.745Z,64.20
2019-04-19T05:16:46.466Z,63.50
2019-04-19T05:19:09.771Z,63.50
2019-04-19T05:21:40.065Z,63.50
2019-04-19T05:24:15.048Z,63.40
2019-04-19T05:26:49.517Z,63.00
2019-04-19T05:29:10.955Z,63.70
2019-04-19T05:31:35.972Z,63.40
2019-04-19T05:34:20.266Z,63.10
2019-04-19T05:36:51.162Z,62.70
2019-04-19T05:39:31.402Z,62.60
2019-04-19T05:41:56.454Z,62.40
2019-04-19T05:44:45.064Z,62.90
2019-04-19T05:47:06.222Z,62.60
2019-04-19T05:49:36.066Z,62.20
2019-04-19T05:52:28.771Z,61.90
2019-04-19T05:54:40.905Z,61.90
2019-04-19T05:57:33.180Z,62.40
2019-04-19T05:59:49.917Z,61.70
2019-04-19T06:02:24.490Z,61.50
2019-04-19T06:05:10.420Z,61.10
2019-04-19T06:07:30.275Z,60.80
2019-04-19T06:09:47.503Z,60.50
2019-04-19T06:12:22.944Z,60.30
2019-04-19T06:15:14.965Z,60.60
2019-04-19T06:17:35.224Z,59.90
2019-04-19T06:20:16.326Z,59.90
2019-04-19T06:22:47.755Z,59.80
2019-04-19T06:25:18.099Z,59.20
2019-04-19T06:30:38.868Z,59.40
2019-04-19T06:33:00.869Z,59.30
2019-04-19T06:35:22.560Z,59.30
2019-04-19T06:37:40.375Z,59.10
2019-04-19T06:40:17.860Z,58.90
2019-04-19T06:42:50.703Z,58.80
2019-04-19T06:45:31.512Z,58.30
2019-04-19T06:47:54.298Z,58.00
2019-04-19T06:50:24.507Z,57.40
2019-04-19T06:52:47.387Z,57.50
2019-04-19T06:55:24.746Z,57.30
2019-04-19T06:57:58.058Z,57.00
2019-04-19T07:00:30.487Z,56.50
2019-04-19T07:02:52.108Z,55.70
2019-04-19T07:05:33.827Z,55.00
2019-04-19T07:08:38.844Z,54.60
2019-04-19T07:10:51.325Z,54.40
2019-04-19T07:13:14.082Z,54.20
2019-04-19T07:15:50.027Z,53.80
2019-04-19T07:18:17.584Z,53.40
2019-04-19T07:20:44.752Z,52.90
2019-04-19T07:23:16.090Z,52.50
2019-04-19T07:25:54.011Z,52.20
2019-04-19T07:28:12.722Z,52.00
2019-04-19T07:30:37.242Z,51.50
2019-04-19T07:33:12.962Z,51.00
2019-04-19T07:36:01.924Z,50.40
2019-04-19T07:38:27.298Z,50.60
2019-04-19T07:41:03.892Z,50.50
2019-04-19T07:43:30.039Z,49.80
2019-04-19T07:46:08.283Z,49.40
2019-04-19T07:48:24.607Z,48.80
2019-04-19T07:53:33.472Z,48.40
2019-04-19T07:56:07.658Z,48.00
2019-04-19T07:58:52.073Z,47.60
2019-04-19T08:01:37.133Z,47.30
2019-04-19T08:04:21.933Z,46.80
2019-04-19T08:06:53.875Z,46.60
2019-04-19T08:09:22.387Z,46.50
2019-04-19T08:11:58.160Z,46.40
2019-04-19T08:14:34.415Z,46.00
2019-04-19T08:29:31.099Z,44.80
2019-04-19T08:31:52.783Z,44.60
2019-04-19T08:34:24.815Z,44.30
2019-04-19T08:36:59.760Z,44.30
2019-04-19T08:40:04.940Z,43.80
2019-04-19T08:42:34.513Z,43.50
2019-04-19T08:44:56.407Z,43.00
2019-04-19T08:47:43.207Z,42.80
2019-04-19T08:50:13.450Z,42.40
2019-04-19T08:52:41.719Z,42.60
2019-04-19T08:55:30.409Z,42.00
2019-04-19T08:57:49.535Z,41.80
2019-04-19T09:00:49.923Z,42.00
2019-04-19T09:03:01.471Z,42.00
2019-04-19T09:05:30.786Z,41.80
2019-04-19T09:08:05.118Z,41.70
2019-04-19T09:10:41.906Z,41.60
2019-04-19T09:13:22.652Z,41.40
2019-04-19T09:15:35.176Z,41.30
2019-04-19T09:20:44.090Z,40.80
2019-04-19T09:23:28.447Z,40.70
2019-04-19T09:26:03.525Z,40.50
2019-04-19T09:31:09.557Z,40.10
2019-04-19T09:33:31.039Z,39.90
2019-04-19T09:36:19.061Z,39.70
2019-04-19T09:39:07.074Z,39.80
2019-04-19T09:41:28.059Z,39.50
2019-04-19T09:44:21.802Z,39.50
2019-04-19T09:46:40.566Z,39.30
2019-04-19T09:49:23.247Z,39.80
2019-04-19T09:51:57.707Z,39.40
2019-04-19T09:54:35.817Z,39.10
2019-04-19T09:56:58.058Z,38.70
2019-04-19T09:59:24.173Z,38.40
2019-04-19T10:01:52.251Z,38.60
2019-04-19T10:04:18.846Z,38.70
2019-04-19T10:06:49.038Z,38.50
2019-04-19T10:09:22.208Z,38.00
2019-04-19T10:11:50.883Z,38.30
2019-04-19T10:14:21.451Z,37.70
2019-04-19T10:16:52.756Z,37.20
2019-04-19T10:19:22.639Z,37.40
2019-04-19T10:21:54.123Z,37.30
2019-04-19T10:24:24.668Z,37.30
2019-04-19T10:27:05.574Z,37.20
2019-04-19T10:29:38.487Z,37.10
2019-04-19T10:32:22.330Z,36.90
2019-04-19T10:34:52.538Z,36.70
2019-04-19T10:37:24.373Z,36.90
2019-04-19T10:39:55.223Z,36.70
2019-04-19T10:42:25.287Z,37.20
2019-04-19T10:44:56.147Z,37.60
2019-04-19T10:47:28.973Z,31.50
2019-04-19T10:50:11.928Z,28.60
2019-04-19T10:52:29.253Z,27.60
2019-04-19T10:54:59.505Z,25.90
2019-04-19T10:57:29.915Z,25.30
2019-04-19T11:00:02.833Z,23.60
2019-04-19T11:02:34.407Z,23.40
2019-04-19T11:05:07.283Z,22.20
2019-04-19T11:07:39.576Z,23.00
2019-04-19T11:10:09.692Z,22.20
2019-04-19T11:12:40.638Z,22.10
2019-04-19T11:15:10.861Z,21.60
2019-04-19T11:17:41.437Z,20.90
2019-04-19T11:20:23.906Z,21.30
2019-04-19T11:22:43.798Z,20.40
2019-04-19T11:25:14.409Z,19.80
2019-04-19T11:27:44.858Z,20.00
2019-04-19T11:30:16.998Z,19.90
2019-04-19T11:32:48.708Z,20.30
2019-04-19T11:35:19.359Z,19.40
2019-04-19T11:37:49.281Z,19.60
2019-04-19T11:40:19.574Z,19.30
2019-04-19T11:42:49.187Z,19.20
2019-04-19T11:45:19.795Z,18.90
2019-04-19T11:47:49.448Z,18.60
2019-04-19T11:50:19.888Z,18.80
2019-04-19T11:53:08.262Z,18.50
2019-04-19T11:55:40.560Z,18.50
2019-04-19T11:58:10.539Z,18.20
2019-04-19T12:00:43.282Z,17.50
2019-04-19T12:03:16.027Z,18.40
2019-04-19T12:05:46.274Z,17.70
2019-04-19T12:08:16.055Z,17.80
2019-04-19T12:10:46.436Z,17.40
2019-04-19T12:13:17.254Z,17.80
2019-04-19T12:15:49.100Z,17.10
2019-04-19T12:18:18.187Z,16.70
2019-04-19T12:20:49.454Z,16.60
2019-04-19T12:23:20.055Z,16.70
2019-04-19T12:25:51.268Z,16.30
2019-04-19T12:28:21.705Z,16.80
2019-04-19T12:30:53.861Z,15.90
2019-04-19T12:33:23.632Z,16.60
2019-04-19T12:35:53.302Z,16.20
2019-04-19T12:38:24.082Z,15.30
2019-04-19T12:41:01.742Z,15.30
2019-04-19T12:43:32.035Z,15.20
2019-04-19T12:46:02.917Z,15.30
2019-04-19T12:48:33.122Z,15.50
2019-04-19T12:51:03.631Z,15.60
2019-04-19T12:53:34.651Z,14.60
2019-04-19T12:56:04.594Z,15.60
2019-04-19T12:58:34.117Z,15.10
2019-04-19T13:01:14.582Z,15.40
2019-04-19T13:04:02.383Z,15.30
2019-04-19T13:06:33.792Z,15.20
2019-04-19T13:09:05.368Z,15.20
2019-04-19T13:11:35.000Z,15.20
2019-04-19T13:14:05.769Z,14.90
2019-04-19T13:16:36.583Z,15.20
2019-04-19T13:19:08.006Z,15.00
2019-04-19T13:21:38.630Z,14.90
2019-04-19T13:24:08.858Z,15.20
2019-04-19T13:26:39.027Z,15.10
2019-04-19T13:29:09.415Z,14.40
2019-04-19T13:31:40.759Z,14.10
2019-04-19T13:34:11.652Z,14.20
2019-04-19T13:36:49.111Z,14.70
2019-04-19T13:39:21.364Z,14.20
2019-04-19T13:41:52.933Z,14.70
2019-04-19T13:44:22.965Z,14.40
2019-04-19T13:46:52.884Z,14.20
2019-04-19T13:49:22.554Z,14.20
2019-04-19T13:51:52.544Z,13.90
2019-04-19T13:54:22.875Z,13.60
2019-04-19T13:56:52.837Z,14.70
2019-04-19T13:59:37.694Z,14.50
2019-04-19T14:01:54.495Z,14.30
2019-04-19T14:04:24.200Z,14.30
2019-04-19T14:06:54.153Z,14.50
2019-04-19T14:09:25.177Z,15.20
2019-04-19T14:11:55.250Z,14.90
2019-04-19T14:14:25.782Z,14.80
2019-04-19T14:16:55.756Z,14.80
2019-04-19T14:19:26.857Z,14.50
2019-04-19T14:21:57.257Z,14.00
2019-04-19T14:24:27.375Z,14.10
2019-04-19T14:26:59.126Z,14.60
2019-04-19T14:29:29.652Z,14.90
2019-04-19T14:31:59.595Z,14.90
2019-04-19T14:34:29.252Z,14.80
2019-04-19T14:37:00.168Z,14.70
2019-04-19T14:39:30.883Z,15.00
2019-04-19T14:42:01.405Z,14.70
2019-04-19T14:44:31.544Z,14.60
2019-04-19T14:47:01.268Z,14.30
2019-04-19T14:49:31.078Z,14.50
2019-04-19T14:52:02.032Z,15.00
2019-04-19T14:54:32.263Z,15.00
2019-04-19T14:57:02.922Z,15.20
2019-04-19T14:59:33.209Z,14.70
2019-04-19T15:02:05.013Z,14.70
2019-04-19T15:04:48.893Z,15.00
2019-04-19T15:07:18.699Z,15.30
2019-04-19T15:09:48.404Z,14.90
2019-04-19T15:12:18.586Z,14.80
2019-04-19T15:14:49.194Z,14.70
2019-04-19T15:17:19.514Z,14.70
2019-04-19T15:19:49.313Z,14.80
2019-04-19T15:22:19.935Z,14.60
2019-04-19T15:24:50.818Z,14.60
2019-04-19T15:27:21.027Z,14.60
2019-04-19T15:29:50.810Z,14.40
2019-04-19T15:32:20.473Z,15.20
2019-04-19T15:34:57.887Z,15.10
2019-04-19T15:37:27.680Z,15.10
2019-04-19T15:39:58.541Z,15.30
2019-04-19T15:42:28.873Z,15.00
2019-04-19T15:44:58.746Z,14.90
2019-04-19T15:47:28.626Z,14.70
2019-04-19T15:49:58.237Z,15.00
2019-04-19T15:52:28.237Z,15.10
2019-04-19T15:54:57.845Z,15.40
2019-04-19T15:57:28.105Z,15.70
2019-04-19T15:59:58.074Z,15.30
2019-04-19T16:02:29.836Z,15.20
2019-04-19T16:05:17.886Z,15.50
2019-04-19T16:07:58.242Z,15.60
2019-04-19T16:10:32.823Z,15.80
2019-04-19T16:13:03.565Z,15.80
2019-04-19T16:15:34.084Z,16.00
2019-04-19T16:18:04.128Z,16.10
2019-04-19T16:20:33.837Z,16.30
2019-04-19T16:23:03.420Z,16.40
2019-04-19T16:25:33.924Z,16.00
2019-04-19T16:28:03.631Z,16.20
2019-04-19T16:30:34.480Z,16.50
2019-04-19T16:33:04.286Z,16.60
2019-04-19T16:35:34.376Z,16.70
2019-04-19T16:38:05.724Z,17.10
2019-04-19T16:40:36.412Z,17.20
2019-04-19T16:43:06.112Z,16.80
2019-04-19T16:45:35.771Z,17.20
2019-04-19T16:48:07.751Z,17.40
2019-04-19T16:50:36.636Z,17.40
2019-04-19T16:53:07.738Z,17.80
2019-04-19T16:55:37.714Z,18.00
2019-04-19T16:58:08.510Z,18.00
2019-04-19T17:00:42.769Z,18.10
2019-04-19T17:03:14.072Z,18.10
2019-04-19T17:05:44.643Z,18.50
2019-04-19T17:08:15.569Z,18.70
2019-04-19T17:10:45.443Z,19.00
2019-04-19T17:13:15.060Z,19.30
2019-04-19T17:16:02.136Z,19.40
2019-04-19T17:18:34.561Z,19.70
2019-04-19T17:21:10.092Z,19.80
2019-04-19T17:23:40.546Z,20.20
2019-04-19T17:26:10.944Z,21.10
2019-04-19T17:28:40.995Z,21.90
2019-04-19T17:31:11.870Z,22.70
2019-04-19T17:33:42.109Z,22.80
2019-04-19T17:36:12.417Z,23.60
2019-04-19T17:38:46.941Z,23.60
2019-04-19T17:41:14.540Z,24.10
2019-04-19T17:43:45.445Z,24.40
2019-04-19T17:46:15.657Z,24.90
2019-04-19T17:48:46.487Z,25.10
2019-04-19T17:51:16.100Z,25.40
2019-04-19T17:53:49.071Z,25.50
2019-04-19T17:56:17.363Z,26.20
2019-04-19T17:58:48.458Z,26.00
2019-04-19T18:01:18.143Z,26.10
2019-04-19T18:03:48.997Z,26.40
2019-04-19T18:06:18.726Z,26.50
2019-04-19T18:08:49.081Z,26.80
2019-04-19T18:11:23.921Z,26.90
2019-04-19T18:13:50.991Z,27.20
2019-04-19T18:16:20.715Z,27.20
2019-04-19T18:18:52.660Z,27.20
2019-04-19T18:21:24.815Z,27.50
2019-04-19T18:24:06.159Z,27.60
2019-04-19T18:26:30.596Z,28.10
2019-04-19T18:28:58.785Z,28.20
2019-04-19T18:31:36.167Z,28.40
2019-04-19T18:34:06.762Z,28.60
2019-04-19T18:36:32.595Z,28.50
2019-04-19T18:39:02.816Z,28.70
2019-04-19T18:41:33.529Z,28.90
2019-04-19T18:44:13.198Z,29.00
2019-04-19T18:46:35.240Z,29.20
2019-04-19T18:49:07.567Z,29.20
2019-04-19T18:51:42.080Z,29.30
2019-04-19T18:54:13.357Z,30.00
2019-04-19T18:56:40.250Z,29.50
2019-04-19T18:59:16.808Z,29.60
2019-04-19T19:01:42.891Z,29.80
2019-04-19T19:04:18.461Z,30.00
2019-04-19T19:06:45.591Z,30.20
2019-04-19T19:09:16.594Z,30.30
2019-04-19T19:11:50.249Z,30.40
2019-04-19T19:14:21.015Z,30.70
2019-04-19T19:16:51.281Z,31.00
2019-04-19T19:19:26.665Z,31.00
2019-04-19T19:21:53.311Z,31.30
2019-04-19T19:24:46.330Z,31.50
2019-04-19T19:27:05.277Z,31.40
2019-04-19T19:29:25.911Z,31.40
2019-04-19T19:32:02.660Z,31.60
2019-04-19T19:34:31.303Z,31.80
2019-04-19T19:37:00.984Z,31.90
2019-04-19T19:39:35.210Z,32.00
2019-04-19T19:44:42.594Z,32.40
2019-04-19T19:47:49.289Z,32.00
2019-04-19T19:50:22.663Z,32.10
2019-04-19T19:52:44.270Z,32.30
2019-04-19T19:55:15.610Z,32.40
2019-04-19T19:57:40.619Z,32.50
2019-04-19T20:00:09.004Z,32.40
2019-04-19T20:02:45.509Z,32.50
2019-04-19T20:05:05.193Z,32.50
2019-04-19T20:07:39.638Z,32.70
2019-04-19T20:10:10.572Z,32.50
2019-04-19T20:12:43.354Z,33.90
2019-04-19T20:15:13.507Z,34.70
2019-04-19T20:17:48.138Z,35.80
2019-04-19T20:20:16.364Z,36.00
2019-04-19T20:22:48.570Z,36.30
2019-04-19T20:25:28.829Z,36.20
2019-04-19T20:27:52.076Z,36.00
2019-04-19T20:30:21.494Z,35.90
2019-04-19T20:32:55.793Z,35.90
2019-04-19T20:35:24.641Z,36.60
2019-04-19T20:37:57.434Z,37.80
2019-04-19T20:40:27.580Z,38.30
2019-04-19T20:43:16.261Z,38.40
2019-04-19T20:45:36.589Z,38.70
2019-04-19T20:48:07.591Z,38.50
2019-04-19T20:50:42.561Z,39.00
2019-04-19T20:53:18.274Z,39.10
2019-04-19T20:56:10.225Z,38.80
2019-04-19T20:58:24.066Z,39.00
2019-04-19T21:00:44.081Z,38.80
2019-04-19T21:03:16.568Z,38.90
2019-04-19T21:05:49.358Z,39.60
2019-04-19T21:08:20.744Z,39.40
2019-04-19T21:10:56.048Z,39.20
2019-04-19T21:13:21.237Z,39.80
2019-04-19T21:15:51.844Z,40.10
2019-04-19T21:18:25.602Z,39.30
2019-04-19T21:20:55.723Z,39.40
2019-04-19T21:23:27.897Z,39.90
2019-04-19T21:26:00.443Z,40.20
2019-04-19T21:28:34.992Z,40.40
2019-04-19T21:31:02.422Z,40.80
2019-04-19T21:33:30.888Z,40.70
2019-04-19T21:36:04.675Z,40.70
2019-04-19T21:38:31.819Z,40.60
2019-04-19T21:41:12.311Z,41.00
2019-04-19T21:43:36.902Z,42.50
2019-04-19T21:46:05.521Z,41.60
2019-04-19T21:48:38.477Z,41.60
2019-04-19T21:51:11.862Z,41.70
2019-04-19T21:53:41.007Z,42.00
2019-04-19T21:56:14.493Z,42.00
2019-04-19T21:58:46.488Z,42.90
2019-04-19T22:01:16.050Z,42.60
2019-04-19T22:03:44.301Z,43.40
2019-04-19T22:06:21.090Z,42.70
2019-04-19T22:08:46.048Z,43.00
2019-04-19T22:11:16.339Z,42.50
2019-04-19T22:13:50.383Z,43.40
2019-04-19T22:16:21.634Z,42.70
2019-04-19T22:18:52.899Z,43.00
2019-04-19T22:21:20.827Z,42.70
2019-04-19T22:23:53.366Z,42.80
2019-04-19T22:26:29.878Z,43.50
2019-04-19T22:28:53.459Z,43.60
2019-04-19T22:31:27.576Z,44.10
2019-04-19T22:33:54.629Z,44.70
2019-04-19T22:36:24.228Z,45.70
2019-04-19T22:38:58.557Z,46.90
2019-04-19T22:41:26.848Z,45.60
2019-04-19T22:43:56.503Z,45.10
2019-04-19T22:46:26.081Z,44.80
2019-04-19T22:49:00.155Z,45.20
2019-04-19T22:51:30.812Z,45.20
2019-04-19T22:54:00.917Z,45.50
2019-04-19T22:56:36.589Z,45.50
2019-04-19T22:59:07.278Z,45.90
2019-04-19T23:01:56.391Z,45.60
2019-04-19T23:04:24.723Z,45.60
2019-04-19T23:06:58.864Z,45.40
2019-04-19T23:09:24.925Z,45.40
2019-04-19T23:11:55.479Z,45.50
2019-04-19T23:14:41.913Z,45.20
2019-04-19T23:17:10.478Z,45.00
2019-04-19T23:19:46.169Z,45.90
2019-04-19T23:22:14.367Z,46.20
2019-04-19T23:24:50.031Z,46.70
2019-04-19T23:27:29.008Z,47.10
2019-04-19T23:29:46.573Z,47.00
2019-04-19T23:32:23.934Z,46.80
2019-04-19T23:34:51.598Z,47.20
2019-04-19T23:37:19.617Z,47.30
2019-04-19T23:39:52.686Z,47.70
2019-04-19T23:42:20.798Z,48.00
2019-04-19T23:44:56.415Z,48.30
2019-04-19T23:47:22.406Z,48.00
2019-04-19T23:49:54.541Z,47.90
2019-04-19T23:52:23.440Z,48.00
2019-04-19T23:54:54.471Z,48.10
2019-04-19T23:57:31.548Z,48.10
